createdAt,value
2019-01-16T00:00:47.246Z,91.88
2019-01-16T00:03:34.314Z,91.18
2019-01-16T00:06:30.068Z,91.29
2019-01-16T00:09:15.641Z,91.02
2019-01-16T00:12:20.139Z,91.34
2019-01-16T00:15:07.467Z,91.66
2019-01-16T00:18:07.274Z,91.71
2019-01-16T00:20:49.481Z,90.93
2019-01-16T00:23:35.062Z,91.37
2019-01-16T00:26:21.009Z,91.43
2019-01-16T00:29:10.711Z,91.60
2019-01-16T00:32:00.497Z,90.85
2019-01-16T00:34:49.721Z,91.08
2019-01-16T00:37:36.394Z,91.21
2019-01-16T00:40:43.013Z,91.70
2019-01-16T00:43:21.124Z,90.73
2019-01-16T00:46:06.483Z,90.92
2019-01-16T00:48:53.192Z,90.43
2019-01-16T00:51:51.835Z,90.74
2019-01-16T00:54:42.148Z,91.20
2019-01-16T00:57:28.455Z,91.34
2019-01-16T01:00:14.333Z,90.71
2019-01-16T01:02:58.832Z,90.40
2019-01-16T01:05:51.417Z,90.50
2019-01-16T01:08:44.270Z,89.62
2019-01-16T01:11:29.679Z,89.46
2019-01-16T01:14:23.010Z,89.59
2019-01-16T01:17:24.938Z,89.81
2019-01-16T01:20:13.199Z,88.69
2019-01-16T01:23:05.800Z,88.80
2019-01-16T01:25:55.523Z,88.81
2019-01-16T01:28:41.439Z,88.72
2019-01-16T01:31:34.645Z,88.75
2019-01-16T01:34:18.922Z,89.02
2019-01-16T01:37:19.152Z,88.84
2019-01-16T01:40:03.709Z,88.49
2019-01-16T01:42:50.646Z,88.56
2019-01-16T01:45:40.121Z,87.83
2019-01-16T01:48:39.759Z,87.66
2019-01-16T01:51:13.596Z,87.96
2019-01-16T01:54:12.051Z,86.46
2019-01-16T01:56:51.768Z,86.42
2019-01-16T01:59:37.759Z,86.95
2019-01-16T02:02:14.223Z,86.75
2019-01-16T02:05:01.259Z,87.24
2019-01-16T02:07:48.763Z,87.25
2019-01-16T02:10:35.717Z,87.69
2019-01-16T02:13:16.346Z,87.27
2019-01-16T02:16:02.052Z,87.19
2019-01-16T02:19:09.201Z,87.58
2019-01-16T02:21:56.347Z,87.67
2019-01-16T02:24:41.286Z,87.97
2019-01-16T02:27:32.019Z,87.91
2019-01-16T02:30:10.191Z,87.99
2019-01-16T02:33:00.906Z,87.79
2019-01-16T02:35:54.567Z,87.71
2019-01-16T02:38:41.598Z,87.64
2019-01-16T02:41:44.794Z,88.01
2019-01-16T02:44:38.578Z,88.17
2019-01-16T02:47:37.350Z,87.08
2019-01-16T02:50:14.718Z,87.52
2019-01-16T02:53:20.705Z,87.77
2019-01-16T02:55:57.991Z,87.33
2019-01-16T02:58:45.619Z,87.47
2019-01-16T03:01:30.282Z,87.37
2019-01-16T03:04:15.882Z,86.73
2019-01-16T03:07:02.560Z,86.60
2019-01-16T03:09:36.589Z,86.57
2019-01-16T03:12:21.919Z,86.80
2019-01-16T03:15:07.266Z,86.62
2019-01-16T03:17:53.881Z,87.15
2019-01-16T03:20:33.789Z,86.77
2019-01-16T03:23:35.649Z,86.43
2019-01-16T03:26:35.550Z,87.41
2019-01-16T03:29:14.558Z,87.03
2019-01-16T03:32:13.566Z,86.60
2019-01-16T03:34:52.320Z,86.97
2019-01-16T03:37:30.929Z,86.22
2019-01-16T03:40:16.193Z,87.18
2019-01-16T03:42:57.380Z,86.75
2019-01-16T03:45:31.862Z,87.17
2019-01-16T03:48:19.322Z,86.92
2019-01-16T03:51:04.911Z,86.78
2019-01-16T03:53:53.203Z,86.90
2019-01-16T03:56:42.901Z,86.60
2019-01-16T03:59:27.985Z,87.97
2019-01-16T04:02:23.963Z,87.84
2019-01-16T04:05:16.811Z,87.03
2019-01-16T04:08:02.391Z,87.01
2019-01-16T04:10:58.156Z,87.21
2019-01-16T04:13:53.849Z,86.35
2019-01-16T04:16:34.372Z,87.28
2019-01-16T04:19:22.064Z,86.92
2019-01-16T04:22:03.443Z,86.85
2019-01-16T04:24:59.247Z,86.91
2019-01-16T04:27:45.922Z,86.79
2019-01-16T04:30:28.712Z,86.36
2019-01-16T04:33:13.953Z,86.27
2019-01-16T04:36:05.803Z,86.11
2019-01-16T04:38:52.496Z,87.00
2019-01-16T04:41:37.992Z,87.50
2019-01-16T04:44:14.890Z,87.94
2019-01-16T04:47:10.892Z,87.01
2019-01-16T04:50:12.673Z,87.12
2019-01-16T04:53:04.694Z,87.04
2019-01-16T04:56:06.710Z,87.42
2019-01-16T04:58:52.349Z,87.26
2019-01-16T05:01:44.968Z,86.90
2019-01-16T05:04:22.384Z,86.79
2019-01-16T05:06:58.731Z,86.30
2019-01-16T05:09:40.871Z,87.28
2019-01-16T05:12:31.570Z,86.88
2019-01-16T05:15:12.805Z,86.59
2019-01-16T05:17:50.203Z,87.08
2019-01-16T05:20:35.603Z,87.65
2019-01-16T05:23:27.198Z,87.40
2019-01-16T05:26:32.022Z,87.07
2019-01-16T05:29:17.887Z,87.31
2019-01-16T05:32:11.030Z,87.45
2019-01-16T05:35:07.669Z,87.88
2019-01-16T05:37:52.954Z,87.72
2019-01-16T05:40:40.159Z,87.37
2019-01-16T05:43:21.949Z,86.42
2019-01-16T05:46:19.468Z,86.87
2019-01-16T05:49:06.325Z,87.02
2019-01-16T05:51:53.347Z,86.97
2019-01-16T05:54:39.643Z,86.48
2019-01-16T05:57:28.043Z,86.75
2019-01-16T06:00:13.240Z,86.03
2019-01-16T06:02:57.997Z,86.17
2019-01-16T06:06:00.294Z,86.25
2019-01-16T06:08:46.984Z,86.08
2019-01-16T06:11:31.566Z,86.38
2019-01-16T06:14:10.031Z,87.04
2019-01-16T06:16:56.173Z,87.39
2019-01-16T06:19:37.915Z,87.02
2019-01-16T06:22:26.925Z,86.98
2019-01-16T06:25:13.076Z,87.35
2019-01-16T06:27:58.382Z,87.52
2019-01-16T06:30:54.620Z,87.67
2019-01-16T06:33:48.178Z,87.50
2019-01-16T06:36:34.847Z,86.66
2019-01-16T06:39:28.960Z,86.83
2019-01-16T06:42:18.216Z,87.42
2019-01-16T06:44:59.225Z,87.80
2019-01-16T06:47:50.022Z,87.40
2019-01-16T06:50:36.423Z,87.40
2019-01-16T06:53:21.959Z,87.43
2019-01-16T06:56:07.539Z,86.94
2019-01-16T06:58:52.459Z,86.50
2019-01-16T07:01:38.249Z,87.19
2019-01-16T07:04:34.418Z,87.56
2019-01-16T07:07:21.898Z,87.62
2019-01-16T07:10:02.183Z,86.95
2019-01-16T07:12:57.951Z,87.28
2019-01-16T07:15:51.340Z,87.17
2019-01-16T07:18:43.983Z,86.92
2019-01-16T07:21:33.565Z,86.36
2019-01-16T07:24:14.640Z,86.12
2019-01-16T07:27:02.469Z,86.27
2019-01-16T07:29:58.000Z,85.51
2019-01-16T07:32:54.159Z,85.74
2019-01-16T07:35:41.009Z,85.31
2019-01-16T07:38:44.413Z,85.44
2019-01-16T07:41:40.440Z,84.13
2019-01-16T07:44:26.650Z,85.16
2019-01-16T07:47:10.186Z,84.96
2019-01-16T07:50:17.181Z,85.21
2019-01-16T07:52:59.172Z,85.32
2019-01-16T07:55:45.055Z,85.10
2019-01-16T07:58:30.720Z,84.57
2019-01-16T08:01:16.501Z,84.66
2019-01-16T08:04:18.598Z,84.38
2019-01-16T08:07:02.640Z,84.04
2019-01-16T08:09:56.002Z,83.64
2019-01-16T08:12:41.912Z,83.84
2019-01-16T08:15:28.804Z,83.49
2019-01-16T08:18:19.718Z,83.90
2019-01-16T08:21:06.246Z,83.35
2019-01-16T08:24:02.414Z,83.74
2019-01-16T08:26:45.507Z,83.44
2019-01-16T08:29:37.602Z,83.55
2019-01-16T08:32:19.497Z,83.00
2019-01-16T08:34:58.627Z,83.56
2019-01-16T08:37:46.628Z,83.89
2019-01-16T08:40:32.729Z,83.43
2019-01-16T08:43:18.340Z,83.55
2019-01-16T08:46:05.547Z,83.18
2019-01-16T08:48:51.121Z,83.42
2019-01-16T08:51:30.061Z,83.23
2019-01-16T08:54:35.254Z,83.62
2019-01-16T08:57:20.802Z,83.78
2019-01-16T09:00:22.144Z,83.82
2019-01-16T09:03:00.143Z,83.97
2019-01-16T09:05:45.812Z,84.10
2019-01-16T09:08:35.762Z,84.19
2019-01-16T09:11:24.262Z,83.84
2019-01-16T09:14:23.069Z,83.98
2019-01-16T09:17:10.271Z,84.49
2019-01-16T09:20:03.370Z,83.77
2019-01-16T09:22:45.192Z,84.02
2019-01-16T09:25:34.919Z,83.70
2019-01-16T09:28:15.014Z,82.47
2019-01-16T09:31:04.680Z,83.47
2019-01-16T09:33:54.187Z,83.29
2019-01-16T09:36:49.983Z,82.87
2019-01-16T09:39:35.496Z,82.53
2019-01-16T09:42:20.780Z,82.73
2019-01-16T09:45:13.260Z,81.82
2019-01-16T09:47:57.574Z,82.89
2019-01-16T09:50:47.792Z,81.70
2019-01-16T09:53:38.319Z,81.14
2019-01-16T09:56:38.107Z,81.15
2019-01-16T09:59:34.007Z,80.96
2019-01-16T10:02:21.841Z,80.69
2019-01-16T10:05:08.075Z,81.21
2019-01-16T10:07:49.621Z,80.67
2019-01-16T10:10:36.790Z,81.49
2019-01-16T10:13:10.650Z,80.65
2019-01-16T10:16:03.194Z,80.12
2019-01-16T10:18:54.408Z,79.80
2019-01-16T10:21:40.962Z,79.82
2019-01-16T10:24:18.297Z,79.36
2019-01-16T10:27:05.213Z,79.55
2019-01-16T10:29:57.208Z,80.08
2019-01-16T10:32:57.202Z,79.69
2019-01-16T10:35:40.603Z,79.64
2019-01-16T10:38:27.098Z,79.17
2019-01-16T10:41:13.928Z,78.97
2019-01-16T10:44:03.381Z,78.59
2019-01-16T10:46:48.497Z,78.29
2019-01-16T10:49:38.438Z,79.53
2019-01-16T10:52:26.056Z,79.45
2019-01-16T10:55:08.140Z,78.51
2019-01-16T10:58:08.096Z,79.36
2019-01-16T11:00:54.178Z,78.34
2019-01-16T11:03:45.176Z,79.87
2019-01-16T11:06:35.613Z,79.51
2019-01-16T11:09:29.360Z,80.49
2019-01-16T11:12:17.025Z,80.04
2019-01-16T11:15:19.465Z,80.88
2019-01-16T11:18:05.350Z,80.79
2019-01-16T11:21:02.265Z,81.79
2019-01-16T11:23:47.886Z,82.13
2019-01-16T11:26:47.042Z,83.52
2019-01-16T11:29:32.459Z,84.24
2019-01-16T11:32:37.602Z,84.76
2019-01-16T11:35:27.974Z,86.96
2019-01-16T11:38:07.813Z,88.82
2019-01-16T11:40:44.991Z,89.22
2019-01-16T11:43:30.175Z,89.79
2019-01-16T11:46:14.563Z,89.76
2019-01-16T11:48:57.885Z,89.01
2019-01-16T11:51:42.744Z,89.23
2019-01-16T11:54:30.241Z,89.31
2019-01-16T11:57:23.227Z,89.62
2019-01-16T12:00:09.625Z,90.14
2019-01-16T12:02:57.319Z,90.93
2019-01-16T12:05:53.262Z,91.10
2019-01-16T12:08:30.532Z,91.68
2019-01-16T12:11:18.184Z,91.97
2019-01-16T12:14:04.894Z,92.01
2019-01-16T12:16:50.269Z,92.36
2019-01-16T12:19:36.929Z,92.07
2019-01-16T12:22:33.073Z,91.83
2019-01-16T12:25:28.629Z,92.46
2019-01-16T12:28:21.794Z,93.31
2019-01-16T12:31:13.070Z,93.47
2019-01-16T12:33:56.115Z,92.85
2019-01-16T12:36:42.024Z,93.10
2019-01-16T12:39:43.818Z,93.32
2019-01-16T12:42:42.868Z,93.31
2019-01-16T12:45:21.887Z,93.92
2019-01-16T12:48:26.870Z,94.51
2019-01-16T12:51:12.834Z,94.22
2019-01-16T12:54:03.126Z,95.00
2019-01-16T12:57:08.059Z,95.08
2019-01-16T12:59:52.987Z,94.93
2019-01-16T13:02:32.943Z,95.91
2019-01-16T13:05:23.579Z,95.71
2019-01-16T13:08:02.610Z,95.79
2019-01-16T13:10:58.580Z,96.31
2019-01-16T13:13:59.166Z,96.75
2019-01-16T13:16:36.547Z,97.07
2019-01-16T13:19:23.359Z,96.33
2019-01-16T13:22:28.347Z,96.23
2019-01-16T13:25:22.386Z,97.00
2019-01-16T13:28:06.840Z,96.76
2019-01-16T13:30:43.625Z,97.24
2019-01-16T13:33:37.330Z,97.25
2019-01-16T13:36:16.071Z,97.49
2019-01-16T13:39:13.051Z,96.78
2019-01-16T13:41:51.856Z,96.82
2019-01-16T13:44:52.417Z,96.60
2019-01-16T13:47:37.832Z,96.45
2019-01-16T13:50:26.043Z,96.12
2019-01-16T13:53:11.574Z,96.05
2019-01-16T13:56:15.431Z,96.07
2019-01-16T13:58:52.771Z,96.36
2019-01-16T14:01:36.735Z,96.20
2019-01-16T14:04:29.160Z,96.16
2019-01-16T14:07:22.613Z,94.92
2019-01-16T14:10:13.716Z,95.49
2019-01-16T14:13:03.434Z,95.24
2019-01-16T14:15:59.423Z,95.21
2019-01-16T14:18:39.626Z,95.38
2019-01-16T14:21:26.316Z,95.10
2019-01-16T14:24:06.395Z,94.92
2019-01-16T14:26:52.861Z,94.55
2019-01-16T14:29:29.479Z,94.34
2019-01-16T14:32:16.482Z,94.26
2019-01-16T14:35:10.775Z,94.24
2019-01-16T14:38:07.375Z,95.14
2019-01-16T14:40:52.317Z,94.55
2019-01-16T14:43:44.938Z,94.29
2019-01-16T14:46:32.190Z,94.68
2019-01-16T14:49:17.588Z,94.61
2019-01-16T14:52:03.573Z,94.83
2019-01-16T14:54:53.973Z,94.79
2019-01-16T14:57:39.750Z,95.28
2019-01-16T15:00:29.332Z,95.59
2019-01-16T15:03:22.281Z,95.56
2019-01-16T15:06:13.912Z,95.46
2019-01-16T15:09:01.843Z,95.07
2019-01-16T15:11:52.242Z,95.26
2019-01-16T15:14:48.340Z,95.88
2019-01-16T15:17:39.523Z,95.62
2019-01-16T15:20:35.978Z,95.66
2019-01-16T15:23:22.359Z,95.75
2019-01-16T15:26:11.930Z,95.83
2019-01-16T15:28:57.967Z,96.25
2019-01-16T15:31:36.447Z,95.87
2019-01-16T15:34:18.655Z,95.79
2019-01-16T15:37:05.145Z,95.19
2019-01-16T15:39:50.690Z,95.32
2019-01-16T15:42:48.037Z,95.03
2019-01-16T15:45:26.671Z,94.98
2019-01-16T15:48:22.620Z,95.60
2019-01-16T15:51:15.138Z,95.75
2019-01-16T15:53:49.370Z,96.26
2019-01-16T15:56:28.110Z,96.67
2019-01-16T15:59:04.783Z,96.32
2019-01-16T16:01:50.383Z,96.23
2019-01-16T16:04:36.162Z,95.93
2019-01-16T16:07:22.655Z,95.69
2019-01-16T16:10:09.567Z,96.13
2019-01-16T16:12:53.610Z,95.71
2019-01-16T16:15:45.437Z,96.11
2019-01-16T16:18:42.051Z,96.41
2019-01-16T16:21:35.618Z,95.44
2019-01-16T16:24:10.842Z,95.66
2019-01-16T16:26:58.633Z,95.54
2019-01-16T16:29:55.956Z,94.87
2019-01-16T16:32:51.746Z,95.42
2019-01-16T16:35:40.961Z,95.43
2019-01-16T16:38:26.851Z,94.92
2019-01-16T16:41:16.051Z,94.68
2019-01-16T16:44:12.639Z,94.46
2019-01-16T16:47:08.863Z,94.94
2019-01-16T16:49:55.551Z,95.65
2019-01-16T16:52:54.626Z,94.96
2019-01-16T16:56:01.102Z,94.85
2019-01-16T16:58:45.907Z,94.82
2019-01-16T17:01:40.730Z,94.92
2019-01-16T17:04:45.575Z,95.27
2019-01-16T17:07:30.802Z,94.89
2019-01-16T17:10:11.728Z,95.36
2019-01-16T17:13:04.364Z,94.74
2019-01-16T17:16:10.179Z,94.66
2019-01-16T17:18:57.076Z,94.58
2019-01-16T17:21:41.135Z,94.82
2019-01-16T17:24:29.603Z,95.18
2019-01-16T17:27:28.786Z,95.18
2019-01-16T17:30:18.794Z,95.28
2019-01-16T17:33:03.119Z,95.26
2019-01-16T17:35:37.966Z,94.91
2019-01-16T17:38:18.815Z,94.77
2019-01-16T17:40:58.249Z,94.40
2019-01-16T17:43:46.497Z,94.81
2019-01-16T17:46:51.303Z,94.55
2019-01-16T17:49:33.263Z,95.15
2019-01-16T17:52:21.002Z,95.15
2019-01-16T17:55:20.686Z,94.41
2019-01-16T17:58:07.710Z,94.29
2019-01-16T18:00:52.814Z,95.03
2019-01-16T18:03:43.833Z,95.40
2019-01-16T18:06:42.565Z,94.68
2019-01-16T18:09:32.060Z,94.00
2019-01-16T18:12:07.473Z,93.88
2019-01-16T18:14:52.487Z,94.10
2019-01-16T18:17:38.373Z,93.13
2019-01-16T18:20:24.515Z,93.00
2019-01-16T18:23:14.948Z,92.92
2019-01-16T18:25:52.239Z,93.02
2019-01-16T18:28:45.287Z,93.54
2019-01-16T18:31:51.068Z,92.97
2019-01-16T18:34:39.055Z,92.62
2019-01-16T18:37:34.938Z,92.88
2019-01-16T18:40:20.612Z,93.85
2019-01-16T18:43:10.380Z,93.96
2019-01-16T18:46:11.165Z,94.31
2019-01-16T18:48:58.199Z,95.49
2019-01-16T18:51:44.895Z,95.48
2019-01-16T18:54:47.042Z,95.50
2019-01-16T18:57:42.545Z,96.15
2019-01-16T19:00:32.795Z,96.33
2019-01-16T19:03:38.367Z,96.10
2019-01-16T19:06:37.165Z,96.28
2019-01-16T19:09:29.155Z,96.08
2019-01-16T19:12:14.692Z,95.75
2019-01-16T19:14:58.784Z,95.64
2019-01-16T19:17:45.429Z,95.47
2019-01-16T19:20:38.162Z,95.11
2019-01-16T19:23:32.659Z,94.82
2019-01-16T19:26:29.322Z,94.84
2019-01-16T19:29:16.943Z,95.32
2019-01-16T19:32:02.533Z,95.14
2019-01-16T19:34:55.526Z,94.90
2019-01-16T19:37:40.206Z,94.64
2019-01-16T19:40:27.979Z,94.62
2019-01-16T19:43:13.526Z,94.46
2019-01-16T19:46:05.278Z,94.81
2019-01-16T19:48:58.118Z,94.67
2019-01-16T19:51:43.846Z,94.86
2019-01-16T19:54:29.703Z,94.69
2019-01-16T19:57:15.294Z,94.14
2019-01-16T20:00:08.268Z,93.68
2019-01-16T20:02:56.263Z,93.21
2019-01-16T20:05:43.603Z,92.88
2019-01-16T20:08:29.450Z,92.97
2019-01-16T20:11:14.633Z,92.51
2019-01-16T20:14:06.136Z,92.70
2019-01-16T20:16:45.282Z,92.38
2019-01-16T20:19:24.085Z,92.57
2019-01-16T20:22:10.652Z,92.63
2019-01-16T20:24:56.358Z,92.58
2019-01-16T20:27:48.589Z,93.32
2019-01-16T20:30:41.409Z,93.01
2019-01-16T20:33:34.737Z,92.67
2019-01-16T20:36:20.025Z,92.76
2019-01-16T20:39:24.276Z,92.90
2019-01-16T20:42:09.497Z,93.18
2019-01-16T20:45:11.720Z,92.89
2019-01-16T20:47:58.186Z,92.97
2019-01-16T20:50:47.902Z,93.02
2019-01-16T20:53:23.389Z,92.73
2019-01-16T20:56:15.845Z,92.88
2019-01-16T20:59:09.140Z,93.45
2019-01-16T21:01:47.657Z,93.51
2019-01-16T21:04:40.691Z,93.32
2019-01-16T21:07:26.612Z,93.38
2019-01-16T21:10:01.085Z,93.34
2019-01-16T21:12:39.708Z,92.81
2019-01-16T21:15:38.103Z,92.15
2019-01-16T21:18:24.790Z,92.61
2019-01-16T21:21:08.427Z,92.22
2019-01-16T21:23:59.794Z,92.78
2019-01-16T21:26:45.056Z,92.53
2019-01-16T21:29:25.118Z,92.30
2019-01-16T21:32:06.994Z,92.41
2019-01-16T21:34:52.430Z,93.22
2019-01-16T21:37:45.272Z,93.53
2019-01-16T21:40:37.971Z,93.28
2019-01-16T21:43:17.805Z,93.77
2019-01-16T21:46:06.047Z,92.96
2019-01-16T21:49:01.805Z,93.00
2019-01-16T21:51:58.211Z,93.94
2019-01-16T21:54:54.471Z,93.30
2019-01-16T21:57:34.937Z,93.62
2019-01-16T22:00:34.335Z,93.01
2019-01-16T22:03:17.955Z,92.99
2019-01-16T22:06:04.844Z,93.35
2019-01-16T22:08:57.681Z,93.60
2019-01-16T22:11:59.557Z,94.08
2019-01-16T22:14:38.736Z,94.23
2019-01-16T22:17:29.787Z,94.76
2019-01-16T22:20:15.329Z,94.42
2019-01-16T22:22:50.772Z,94.58
2019-01-16T22:25:43.932Z,94.12
2019-01-16T22:28:29.101Z,93.90
2019-01-16T22:31:24.602Z,93.78
2019-01-16T22:34:09.890Z,94.03
2019-01-16T22:37:04.211Z,94.62
2019-01-16T22:39:49.820Z,94.67
2019-01-16T22:42:28.511Z,93.88
2019-01-16T22:45:18.261Z,94.08
2019-01-16T22:48:00.974Z,93.64
2019-01-16T22:50:47.230Z,93.84
2019-01-16T22:53:35.869Z,93.53
2019-01-16T22:56:14.634Z,94.06
2019-01-16T22:58:57.266Z,93.78
2019-01-16T23:01:44.216Z,93.53
2019-01-16T23:04:25.318Z,93.37
2019-01-16T23:07:07.869Z,92.96
2019-01-16T23:09:45.415Z,92.43
2019-01-16T23:12:31.551Z,91.88
2019-01-16T23:15:25.835Z,91.84
2019-01-16T23:18:32.825Z,91.85
2019-01-16T23:21:12.006Z,91.72
2019-01-16T23:23:57.246Z,91.72
2019-01-16T23:26:49.885Z,91.29
2019-01-16T23:29:39.966Z,91.16
2019-01-16T23:32:24.723Z,90.90
2019-01-16T23:35:04.091Z,91.08
2019-01-16T23:38:00.547Z,90.99
2019-01-16T23:40:47.648Z,91.17
2019-01-16T23:43:32.849Z,90.77
2019-01-16T23:46:16.726Z,91.42
2019-01-16T23:49:02.086Z,91.72
2019-01-16T23:51:51.952Z,91.78
2019-01-16T23:54:34.914Z,92.17
2019-01-16T23:57:24.161Z,92.63
